sensor_id;sensor_type;location;lat;lon;timestamp;pressure;altitude;pressure_sealevel;temperature;humidity
3444;BME280;1736;52.068;6.968;2023-07-29T00:01:14;100391.03;;;18.03;100.00
3444;BME280;1736;52.068;6.968;2023-07-29T00:03:40;100385.84;;;18.01;100.00
3444;BME280;1736;52.068;6.968;2023-07-29T00:06:07;100371.03;;;18.05;100.00
3444;BME280;1736;52.068;6.968;2023-07-29T00:08:34;100374.44;;;17.99;100.00
3444;BME280;1736;52.068;6.968;2023-07-29T00:11:00;100384.19;;;18.00;100.00
3444;BME280;1736;52.068;6.968;2023-07-29T00:13:27;100376.47;;;17.97;100.00
3444;BME280;1736;52.068;6.968;2023-07-29T00:15:55;100385.72;;;17.95;100.00
3444;BME280;1736;52.068;6.968;2023-07-29T00:18:22;100395.28;;;17.97;100.00
3444;BME280;1736;52.068;6.968;2023-07-29T00:20:49;100396.38;;;17.88;100.00
3444;BME280;1736;52.068;6.968;2023-07-29T00:23:17;100399.41;;;17.85;100.00
3444;BME280;1736;52.068;6.968;2023-07-29T00:25:44;100458.53;;;17.77;100.00
3444;BME280;1736;52.068;6.968;2023-07-29T00:28:11;100426.03;;;17.72;100.00
3444;BME280;1736;52.068;6.968;2023-07-29T00:30:38;100418.50;;;17.68;100.00
3444;BME280;1736;52.068;6.968;2023-07-29T00:33:06;100417.03;;;17.65;100.00
3444;BME280;1736;52.068;6.968;2023-07-29T00:35:33;100407.94;;;17.66;100.00
3444;BME280;1736;52.068;6.968;2023-07-29T00:37:59;100410.16;;;17.63;100.00
3444;BME280;1736;52.068;6.968;2023-07-29T00:40:28;100400.25;;;17.63;100.00
3444;BME280;1736;52.068;6.968;2023-07-29T00:42:55;100413.19;;;17.60;100.00
3444;BME280;1736;52.068;6.968;2023-07-29T00:45:23;100409.31;;;17.62;100.00
3444;BME280;1736;52.068;6.968;2023-07-29T00:47:49;100406.91;;;17.67;100.00
3444;BME280;1736;52.068;6.968;2023-07-29T00:50:17;100423.69;;;17.69;100.00
3444;BME280;1736;52.068;6.968;2023-07-29T00:52:44;100553.59;;;17.83;100.00
3444;BME280;1736;52.068;6.968;2023-07-29T00:55:11;100453.72;;;17.87;100.00
3444;BME280;1736;52.068;6.968;2023-07-29T00:57:38;100448.00;;;17.90;100.00
3444;BME280;1736;52.068;6.968;2023-07-29T01:00:06;100438.13;;;17.91;100.00
3444;BME280;1736;52.068;6.968;2023-07-29T01:02:34;100440.81;;;17.91;100.00
3444;BME280;1736;52.068;6.968;2023-07-29T01:05:01;100441.94;;;17.96;100.00
3444;BME280;1736;52.068;6.968;2023-07-29T01:07:33;100482.72;;;17.92;100.00
3444;BME280;1736;52.068;6.968;2023-07-29T01:10:04;100475.34;;;17.94;100.00
3444;BME280;1736;52.068;6.968;2023-07-29T01:12:53;100489.06;;;17.99;100.00
3444;BME280;1736;52.068;6.968;2023-07-29T01:15:23;100476.09;;;18.02;100.00
3444;BME280;1736;52.068;6.968;2023-07-29T01:17:54;100478.06;;;18.08;100.00
3444;BME280;1736;52.068;6.968;2023-07-29T01:20:23;100480.75;;;18.08;100.00
3444;BME280;1736;52.068;6.968;2023-07-29T01:22:52;100479.56;;;18.11;100.00
3444;BME280;1736;52.068;6.968;2023-07-29T01:25:20;100487.84;;;18.24;100.00
3444;BME280;1736;52.068;6.968;2023-07-29T01:27:48;100495.31;;;18.28;100.00
3444;BME280;1736;52.068;6.968;2023-07-29T01:30:17;100485.88;;;18.32;100.00
3444;BME280;1736;52.068;6.968;2023-07-29T01:32:53;100484.34;;;18.38;100.00
3444;BME280;1736;52.068;6.968;2023-07-29T01:35:24;100482.50;;;18.38;100.00
3444;BME280;1736;52.068;6.968;2023-07-29T01:37:57;100487.88;;;18.38;100.00
3444;BME280;1736;52.068;6.968;2023-07-29T01:40:27;100478.81;;;18.39;100.00
3444;BME280;1736;52.068;6.968;2023-07-29T01:42:54;100473.25;;;18.41;100.00
3444;BME280;1736;52.068;6.968;2023-07-29T01:45:23;100474.72;;;18.43;100.00
3444;BME280;1736;52.068;6.968;2023-07-29T01:47:50;100469.34;;;18.43;100.00
3444;BME280;1736;52.068;6.968;2023-07-29T01:50:17;100467.88;;;18.41;100.00
3444;BME280;1736;52.068;6.968;2023-07-29T01:52:43;100452.41;;;18.43;100.00
3444;BME280;1736;52.068;6.968;2023-07-29T01:55:10;100462.97;;;18.44;100.00
3444;BME280;1736;52.068;6.968;2023-07-29T01:57:38;100467.34;;;18.45;100.00
3444;BME280;1736;52.068;6.968;2023-07-29T02:00:06;100452.22;;;18.44;100.00
3444;BME280;1736;52.068;6.968;2023-07-29T02:02:33;100455.19;;;18.49;100.00
3444;BME280;1736;52.068;6.968;2023-07-29T02:04:59;100457.22;;;18.47;100.00
3444;BME280;1736;52.068;6.968;2023-07-29T02:07:26;100457.03;;;18.49;100.00
3444;BME280;1736;52.068;6.968;2023-07-29T02:09:52;100448.53;;;18.45;100.00
3444;BME280;1736;52.068;6.968;2023-07-29T02:12:19;100470.38;;;18.42;100.00
3444;BME280;1736;52.068;6.968;2023-07-29T02:14:47;100444.16;;;18.44;100.00
3444;BME280;1736;52.068;6.968;2023-07-29T02:17:14;100448.22;;;18.40;100.00
3444;BME280;1736;52.068;6.968;2023-07-29T02:19:40;100427.75;;;18.39;100.00
3444;BME280;1736;52.068;6.968;2023-07-29T02:22:07;100442.22;;;18.38;100.00
3444;BME280;1736;52.068;6.968;2023-07-29T02:24:33;100445.94;;;18.37;100.00
3444;BME280;1736;52.068;6.968;2023-07-29T02:27:00;100441.75;;;18.35;100.00
3444;BME280;1736;52.068;6.968;2023-07-29T02:29:26;100463.03;;;18.36;100.00
3444;BME280;1736;52.068;6.968;2023-07-29T02:31:54;100456.69;;;18.37;100.00
3444;BME280;1736;52.068;6.968;2023-07-29T02:34:21;100449.25;;;18.39;100.00
3444;BME280;1736;52.068;6.968;2023-07-29T02:36:47;100448.22;;;18.40;100.00
3444;BME280;1736;52.068;6.968;2023-07-29T02:39:14;100451.22;;;18.45;100.00
3444;BME280;1736;52.068;6.968;2023-07-29T02:41:41;100452.22;;;18.44;100.00
3444;BME280;1736;52.068;6.968;2023-07-29T02:44:07;100454.25;;;18.42;100.00
3444;BME280;1736;52.068;6.968;2023-07-29T02:46:34;100490.84;;;18.43;100.00
3444;BME280;1736;52.068;6.968;2023-07-29T02:49:03;100477.41;;;18.43;100.00
3444;BME280;1736;52.068;6.968;2023-07-29T02:51:29;100463.34;;;18.41;100.00
3444;BME280;1736;52.068;6.968;2023-07-29T02:53:56;100460.47;;;18.43;100.00
3444;BME280;1736;52.068;6.968;2023-07-29T02:56:23;100464.66;;;18.45;100.00
3444;BME280;1736;52.068;6.968;2023-07-29T02:58:50;100472.91;;;18.44;100.00
3444;BME280;1736;52.068;6.968;2023-07-29T03:01:17;100472.41;;;18.40;100.00
3444;BME280;1736;52.068;6.968;2023-07-29T03:03:44;100475.31;;;18.39;100.00
3444;BME280;1736;52.068;6.968;2023-07-29T03:06:13;100479.81;;;18.38;100.00
3444;BME280;1736;52.068;6.968;2023-07-29T03:08:41;100486.22;;;18.37;100.00
3444;BME280;1736;52.068;6.968;2023-07-29T03:11:09;100477.16;;;18.38;100.00
3444;BME280;1736;52.068;6.968;2023-07-29T03:13:36;100488.06;;;18.37;100.00
3444;BME280;1736;52.068;6.968;2023-07-29T03:16:06;100481.03;;;18.36;100.00
3444;BME280;1736;52.068;6.968;2023-07-29T03:18:33;100479.38;;;18.35;100.00
3444;BME280;1736;52.068;6.968;2023-07-29T03:20:59;100480.50;;;18.32;100.00
3444;BME280;1736;52.068;6.968;2023-07-29T03:23:28;100487.94;;;18.30;100.00
3444;BME280;1736;52.068;6.968;2023-07-29T03:25:55;100499.31;;;18.32;100.00
3444;BME280;1736;52.068;6.968;2023-07-29T03:28:23;100501.38;;;18.30;100.00
3444;BME280;1736;52.068;6.968;2023-07-29T03:30:50;100495.31;;;18.28;100.00
3444;BME280;1736;52.068;6.968;2023-07-29T03:33:17;100493.31;;;18.30;100.00
3444;BME280;1736;52.068;6.968;2023-07-29T03:35:43;100505.25;;;18.28;100.00
3444;BME280;1736;52.068;6.968;2023-07-29T03:38:10;100504.41;;;18.27;100.00
3444;BME280;1736;52.068;6.968;2023-07-29T03:40:38;100499.22;;;18.26;100.00
3444;BME280;1736;52.068;6.968;2023-07-29T03:43:05;100505.44;;;18.26;100.00
3444;BME280;1736;52.068;6.968;2023-07-29T03:45:31;100506.16;;;18.20;100.00
3444;BME280;1736;52.068;6.968;2023-07-29T03:47:58;100506.03;;;18.14;100.00
3444;BME280;1736;52.068;6.968;2023-07-29T03:50:25;100508.44;;;18.09;100.00
3444;BME280;1736;52.068;6.968;2023-07-29T03:52:52;100506.09;;;18.06;100.00
3444;BME280;1736;52.068;6.968;2023-07-29T03:55:18;100502.09;;;18.02;100.00
3444;BME280;1736;52.068;6.968;2023-07-29T03:57:47;100583.84;;;17.99;100.00
3444;BME280;1736;52.068;6.968;2023-07-29T04:00:14;100537.75;;;17.96;100.00
3444;BME280;1736;52.068;6.968;2023-07-29T04:02:41;100531.53;;;17.95;100.00
3444;BME280;1736;52.068;6.968;2023-07-29T04:05:08;100520.44;;;17.98;100.00
3444;BME280;1736;52.068;6.968;2023-07-29T04:07:35;100517.91;;;17.97;100.00
3444;BME280;1736;52.068;6.968;2023-07-29T04:10:02;100514.22;;;17.98;100.00
3444;BME280;1736;52.068;6.968;2023-07-29T04:12:29;100518.78;;;17.97;100.00
3444;BME280;1736;52.068;6.968;2023-07-29T04:14:57;100516.25;;;17.96;100.00
3444;BME280;1736;52.068;6.968;2023-07-29T04:17:24;100534.03;;;17.97;100.00
3444;BME280;1736;52.068;6.968;2023-07-29T04:19:50;100517.28;;;17.95;100.00
3444;BME280;1736;52.068;6.968;2023-07-29T04:22:17;100521.16;;;17.92;100.00
3444;BME280;1736;52.068;6.968;2023-07-29T04:24:43;100524.31;;;17.96;100.00
3444;BME280;1736;52.068;6.968;2023-07-29T04:27:10;100530.16;;;17.99;100.00
3444;BME280;1736;52.068;6.968;2023-07-29T04:29:37;100534.53;;;18.00;100.00
3444;BME280;1736;52.068;6.968;2023-07-29T04:32:05;100517.69;;;18.06;100.00
3444;BME280;1736;52.068;6.968;2023-07-29T04:34:32;100516.47;;;18.09;100.00
3444;BME280;1736;52.068;6.968;2023-07-29T04:36:58;100516.78;;;18.14;100.00
3444;BME280;1736;52.068;6.968;2023-07-29T04:39:25;100521.31;;;18.13;100.00
3444;BME280;1736;52.068;6.968;2023-07-29T04:41:51;100525.31;;;18.17;100.00
3444;BME280;1736;52.068;6.968;2023-07-29T04:44:18;100537.03;;;18.24;100.00
3444;BME280;1736;52.068;6.968;2023-07-29T04:46:45;100548.06;;;18.29;100.00
3444;BME280;1736;52.068;6.968;2023-07-29T04:49:13;100541.66;;;18.30;100.00
3444;BME280;1736;52.068;6.968;2023-07-29T04:51:39;100549.38;;;18.33;100.00
3444;BME280;1736;52.068;6.968;2023-07-29T04:54:06;100608.78;;;18.38;100.00
3444;BME280;1736;52.068;6.968;2023-07-29T04:56:32;100600.94;;;18.51;100.00
3444;BME280;1736;52.068;6.968;2023-07-29T04:58:59;100618.44;;;18.47;100.00
3444;BME280;1736;52.068;6.968;2023-07-29T05:01:25;100621.13;;;18.47;100.00
3444;BME280;1736;52.068;6.968;2023-07-29T05:03:52;100637.94;;;18.49;100.00
3444;BME280;1736;52.068;6.968;2023-07-29T05:06:20;100635.25;;;18.49;100.00
3444;BME280;1736;52.068;6.968;2023-07-29T05:08:46;100628.66;;;18.52;100.00
3444;BME280;1736;52.068;6.968;2023-07-29T05:11:13;100629.81;;;18.57;100.00
3444;BME280;1736;52.068;6.968;2023-07-29T05:13:40;100643.34;;;18.64;100.00
3444;BME280;1736;52.068;6.968;2023-07-29T05:16:09;100622.47;;;18.66;100.00
3444;BME280;1736;52.068;6.968;2023-07-29T05:18:35;100619.25;;;18.70;100.00
3444;BME280;1736;52.068;6.968;2023-07-29T05:21:02;100616.94;;;18.67;100.00
3444;BME280;1736;52.068;6.968;2023-07-29T05:23:30;100616.94;;;18.67;100.00
3444;BME280;1736;52.068;6.968;2023-07-29T05:25:56;100617.22;;;18.72;100.00
3444;BME280;1736;52.068;6.968;2023-07-29T05:28:23;100670.50;;;18.69;100.00
3444;BME280;1736;52.068;6.968;2023-07-29T05:30:50;100669.31;;;18.71;100.00
3444;BME280;1736;52.068;6.968;2023-07-29T05:33:16;100658.22;;;18.74;100.00
3444;BME280;1736;52.068;6.968;2023-07-29T05:35:43;100665.44;;;18.74;100.00
3444;BME280;1736;52.068;6.968;2023-07-29T05:38:11;100686.41;;;18.78;100.00
3444;BME280;1736;52.068;6.968;2023-07-29T05:40:39;100696.97;;;18.80;100.00
3444;BME280;1736;52.068;6.968;2023-07-29T05:43:06;100709.69;;;18.86;100.00
3444;BME280;1736;52.068;6.968;2023-07-29T05:45:33;100718.53;;;18.94;100.00
3444;BME280;1736;52.068;6.968;2023-07-29T05:48:00;100726.84;;;18.85;100.00
3444;BME280;1736;52.068;6.968;2023-07-29T05:50:26;100736.97;;;18.97;100.00
3444;BME280;1736;52.068;6.968;2023-07-29T05:52:52;100734.78;;;19.01;100.00
3444;BME280;1736;52.068;6.968;2023-07-29T05:55:19;100748.72;;;19.19;100.00
3444;BME280;1736;52.068;6.968;2023-07-29T05:57:47;100739.19;;;18.94;100.00
3444;BME280;1736;52.068;6.968;2023-07-29T06:00:14;100753.84;;;18.91;100.00
3444;BME280;1736;52.068;6.968;2023-07-29T06:02:40;100744.63;;;18.86;100.00
3444;BME280;1736;52.068;6.968;2023-07-29T06:05:07;100738.50;;;18.77;100.00
3444;BME280;1736;52.068;6.968;2023-07-29T06:07:34;100735.47;;;18.95;100.00
3444;BME280;1736;52.068;6.968;2023-07-29T06:10:00;100734.84;;;18.93;100.00
3444;BME280;1736;52.068;6.968;2023-07-29T06:12:27;100742.50;;;19.04;100.00
3444;BME280;1736;52.068;6.968;2023-07-29T06:14:55;100730.34;;;19.08;100.00
3444;BME280;1736;52.068;6.968;2023-07-29T06:17:22;100727.91;;;18.98;100.00
3444;BME280;1736;52.068;6.968;2023-07-29T06:19:48;100723.84;;;19.02;99.79
3444;BME280;1736;52.068;6.968;2023-07-29T06:22:15;100730.94;;;18.95;98.40
3444;BME280;1736;52.068;6.968;2023-07-29T06:24:41;100744.25;;;19.11;96.94
3444;BME280;1736;52.068;6.968;2023-07-29T06:27:08;100741.91;;;19.31;95.61
3444;BME280;1736;52.068;6.968;2023-07-29T06:29:34;100739.16;;;19.16;96.06
3444;BME280;1736;52.068;6.968;2023-07-29T06:32:03;100739.97;;;19.25;95.06
3444;BME280;1736;52.068;6.968;2023-07-29T06:34:30;100749.09;;;19.38;94.78
3444;BME280;1736;52.068;6.968;2023-07-29T06:36:56;100662.13;;;19.38;94.65
3444;BME280;1736;52.068;6.968;2023-07-29T06:39:23;100689.31;;;19.57;93.86
3444;BME280;1736;52.068;6.968;2023-07-29T06:41:50;100683.59;;;19.60;93.86
3444;BME280;1736;52.068;6.968;2023-07-29T06:44:16;100710.31;;;19.47;92.60
3444;BME280;1736;52.068;6.968;2023-07-29T06:46:43;100714.94;;;19.53;92.55
3444;BME280;1736;52.068;6.968;2023-07-29T06:49:11;100717.38;;;19.63;92.33
3444;BME280;1736;52.068;6.968;2023-07-29T06:51:37;100711.81;;;19.64;91.62
3444;BME280;1736;52.068;6.968;2023-07-29T06:54:04;100703.16;;;19.54;91.47
3444;BME280;1736;52.068;6.968;2023-07-29T06:56:30;100696.94;;;19.39;92.32
3444;BME280;1736;52.068;6.968;2023-07-29T06:58:57;100709.09;;;19.64;92.61
3444;BME280;1736;52.068;6.968;2023-07-29T07:01:24;100701.19;;;19.34;92.29
3444;BME280;1736;52.068;6.968;2023-07-29T07:03:50;100705.97;;;19.46;92.20
3444;BME280;1736;52.068;6.968;2023-07-29T07:06:21;100714.31;;;19.51;91.81
3444;BME280;1736;52.068;6.968;2023-07-29T07:08:49;100720.91;;;19.63;91.51
3444;BME280;1736;52.068;6.968;2023-07-29T07:11:16;100721.09;;;19.76;90.88
3444;BME280;1736;52.068;6.968;2023-07-29T07:13:43;100730.38;;;19.88;90.55
3444;BME280;1736;52.068;6.968;2023-07-29T07:16:10;100728.94;;;20.07;89.90
3444;BME280;1736;52.068;6.968;2023-07-29T07:18:36;100727.56;;;20.26;90.03
3444;BME280;1736;52.068;6.968;2023-07-29T07:21:03;100710.91;;;20.37;87.80
3444;BME280;1736;52.068;6.968;2023-07-29T07:23:31;100719.06;;;20.43;87.94
3444;BME280;1736;52.068;6.968;2023-07-29T07:25:57;100717.22;;;20.29;88.20
3444;BME280;1736;52.068;6.968;2023-07-29T07:28:24;100718.50;;;20.33;88.17
3444;BME280;1736;52.068;6.968;2023-07-29T07:30:51;100717.28;;;20.36;88.39
3444;BME280;1736;52.068;6.968;2023-07-29T07:33:18;100708.56;;;20.34;87.80
3444;BME280;1736;52.068;6.968;2023-07-29T07:35:44;100707.06;;;20.46;88.29
3444;BME280;1736;52.068;6.968;2023-07-29T07:38:11;100711.03;;;20.71;88.21
3444;BME280;1736;52.068;6.968;2023-07-29T07:40:39;100704.13;;;20.62;86.82
3444;BME280;1736;52.068;6.968;2023-07-29T07:43:05;100706.69;;;20.49;87.53
3444;BME280;1736;52.068;6.968;2023-07-29T07:45:32;100712.56;;;20.59;86.85
3444;BME280;1736;52.068;6.968;2023-07-29T07:47:59;100704.38;;;20.67;86.76
3444;BME280;1736;52.068;6.968;2023-07-29T07:50:29;100705.78;;;20.63;87.00
3444;BME280;1736;52.068;6.968;2023-07-29T07:52:55;100692.72;;;20.66;86.85
3444;BME280;1736;52.068;6.968;2023-07-29T07:55:22;100698.09;;;20.81;86.84
3444;BME280;1736;52.068;6.968;2023-07-29T07:57:49;100694.09;;;20.77;86.89
3444;BME280;1736;52.068;6.968;2023-07-29T08:00:16;100709.25;;;20.78;86.68
3444;BME280;1736;52.068;6.968;2023-07-29T08:02:44;100695.66;;;20.65;86.82
3444;BME280;1736;52.068;6.968;2023-07-29T08:05:11;100702.69;;;20.66;86.69
3444;BME280;1736;52.068;6.968;2023-07-29T08:07:37;100695.78;;;20.78;86.30
3444;BME280;1736;52.068;6.968;2023-07-29T08:10:05;100687.94;;;20.62;87.07
3444;BME280;1736;52.068;6.968;2023-07-29T08:12:32;100694.81;;;20.64;87.34
3444;BME280;1736;52.068;6.968;2023-07-29T08:15:00;100691.13;;;20.72;87.80
3444;BME280;1736;52.068;6.968;2023-07-29T08:17:26;100690.25;;;20.86;88.32
3444;BME280;1736;52.068;6.968;2023-07-29T08:19:53;100683.44;;;20.90;87.46
3444;BME280;1736;52.068;6.968;2023-07-29T08:22:20;100675.84;;;21.00;87.54
3444;BME280;1736;52.068;6.968;2023-07-29T08:24:46;100683.75;;;21.29;86.68
3444;BME280;1736;52.068;6.968;2023-07-29T08:27:13;100695.97;;;21.52;86.60
3444;BME280;1736;52.068;6.968;2023-07-29T08:29:39;100694.31;;;21.58;83.77
3444;BME280;1736;52.068;6.968;2023-07-29T08:32:07;100706.53;;;21.75;84.00
3444;BME280;1736;52.068;6.968;2023-07-29T08:34:34;100692.16;;;21.40;83.55
3444;BME280;1736;52.068;6.968;2023-07-29T08:37:01;100697.28;;;21.63;83.57
3444;BME280;1736;52.068;6.968;2023-07-29T08:39:28;100702.63;;;21.84;83.54
3444;BME280;1736;52.068;6.968;2023-07-29T08:41:59;100692.38;;;21.73;82.38
3444;BME280;1736;52.068;6.968;2023-07-29T08:44:31;100697.81;;;21.79;83.52
3444;BME280;1736;52.068;6.968;2023-07-29T08:47:01;100695.84;;;22.07;82.15
3444;BME280;1736;52.068;6.968;2023-07-29T08:49:30;100695.03;;;22.07;81.43
3444;BME280;1736;52.068;6.968;2023-07-29T08:51:57;100688.84;;;22.26;80.76
3444;BME280;1736;52.068;6.968;2023-07-29T08:54:24;100692.63;;;22.38;81.13
3444;BME280;1736;52.068;6.968;2023-07-29T08:56:51;100684.38;;;22.65;81.54
3444;BME280;1736;52.068;6.968;2023-07-29T08:59:19;100691.91;;;22.63;77.58
3444;BME280;1736;52.068;6.968;2023-07-29T09:01:46;100685.22;;;22.53;78.02
3444;BME280;1736;52.068;6.968;2023-07-29T09:04:13;100821.53;;;22.31;77.90
3444;BME280;1736;52.068;6.968;2023-07-29T09:06:42;100712.59;;;22.37;79.19
3444;BME280;1736;52.068;6.968;2023-07-29T09:09:09;100704.81;;;22.68;77.93
3444;BME280;1736;52.068;6.968;2023-07-29T09:11:36;100692.09;;;22.68;77.55
3444;BME280;1736;52.068;6.968;2023-07-29T09:14:02;100691.69;;;22.71;76.87
3444;BME280;1736;52.068;6.968;2023-07-29T09:16:30;100693.16;;;22.93;76.37
3444;BME280;1736;52.068;6.968;2023-07-29T09:19:01;100683.59;;;23.04;75.62
3444;BME280;1736;52.068;6.968;2023-07-29T09:21:29;100690.03;;;23.16;75.89
3444;BME280;1736;52.068;6.968;2023-07-29T09:24:02;100691.50;;;22.99;76.43
3444;BME280;1736;52.068;6.968;2023-07-29T09:26:29;100693.16;;;22.74;76.53
3444;BME280;1736;52.068;6.968;2023-07-29T09:28:57;100701.91;;;22.82;76.85
3444;BME280;1736;52.068;6.968;2023-07-29T09:31:25;100707.13;;;22.97;76.41
3444;BME280;1736;52.068;6.968;2023-07-29T09:33:56;100698.56;;;22.74;76.89
3444;BME280;1736;52.068;6.968;2023-07-29T09:36:23;100765.59;;;22.85;76.75
3444;BME280;1736;52.068;6.968;2023-07-29T09:38:52;100815.06;;;22.66;77.63
3444;BME280;1736;52.068;6.968;2023-07-29T09:41:22;100716.75;;;22.33;78.15
3444;BME280;1736;52.068;6.968;2023-07-29T09:43:55;100714.25;;;22.38;78.74
3444;BME280;1736;52.068;6.968;2023-07-29T09:46:23;100721.44;;;22.58;77.78
3444;BME280;1736;52.068;6.968;2023-07-29T09:48:53;100726.22;;;22.76;77.08
3444;BME280;1736;52.068;6.968;2023-07-29T09:51:19;100720.44;;;22.85;76.49
3444;BME280;1736;52.068;6.968;2023-07-29T09:53:47;100724.63;;;23.33;76.07
3444;BME280;1736;52.068;6.968;2023-07-29T09:56:14;100720.66;;;23.36;75.82
3444;BME280;1736;52.068;6.968;2023-07-29T09:58:44;100717.53;;;23.45;75.43
3444;BME280;1736;52.068;6.968;2023-07-29T10:01:12;100717.72;;;23.70;74.18
3444;BME280;1736;52.068;6.968;2023-07-29T10:03:39;100710.44;;;23.57;74.92
3444;BME280;1736;52.068;6.968;2023-07-29T10:06:06;100716.09;;;23.30;73.66
3444;BME280;1736;52.068;6.968;2023-07-29T10:08:33;100721.75;;;23.22;74.21
3444;BME280;1736;52.068;6.968;2023-07-29T10:11:05;100719.84;;;23.42;74.15
3444;BME280;1736;52.068;6.968;2023-07-29T10:13:32;100714.84;;;23.32;74.83
3444;BME280;1736;52.068;6.968;2023-07-29T10:16:01;100704.84;;;23.20;74.79
3444;BME280;1736;52.068;6.968;2023-07-29T10:18:29;100699.41;;;23.52;74.26
3444;BME280;1736;52.068;6.968;2023-07-29T10:20:57;100710.22;;;23.59;74.43
3444;BME280;1736;52.068;6.968;2023-07-29T10:23:26;100710.91;;;23.22;74.92
3444;BME280;1736;52.068;6.968;2023-07-29T10:25:57;100712.34;;;23.05;76.13
3444;BME280;1736;52.068;6.968;2023-07-29T10:28:26;100705.69;;;23.01;77.13
3444;BME280;1736;52.068;6.968;2023-07-29T10:30:56;100834.13;;;23.05;76.17
3444;BME280;1736;52.068;6.968;2023-07-29T10:33:25;100701.53;;;23.24;75.13
3444;BME280;1736;52.068;6.968;2023-07-29T10:35:52;100703.56;;;23.16;76.21
3444;BME280;1736;52.068;6.968;2023-07-29T10:38:21;100702.75;;;23.15;75.59
3444;BME280;1736;52.068;6.968;2023-07-29T10:40:50;100705.88;;;23.38;75.77
3444;BME280;1736;52.068;6.968;2023-07-29T10:43:19;100721.44;;;23.82;75.11
3444;BME280;1736;52.068;6.968;2023-07-29T10:45:50;100708.41;;;24.10;72.76
3444;BME280;1736;52.068;6.968;2023-07-29T10:48:41;100707.56;;;24.16;71.80
3444;BME280;1736;52.068;6.968;2023-07-29T10:51:28;100703.69;;;24.37;72.17
3444;BME280;1736;52.068;6.968;2023-07-29T10:54:00;100698.28;;;24.37;72.28
3444;BME280;1736;52.068;6.968;2023-07-29T10:56:29;100694.03;;;24.54;69.86
3444;BME280;1736;52.068;6.968;2023-07-29T10:58:57;100692.38;;;24.46;69.92
3444;BME280;1736;52.068;6.968;2023-07-29T11:01:26;100703.13;;;24.72;70.62
3444;BME280;1736;52.068;6.968;2023-07-29T11:04:26;100693.81;;;24.86;69.53
3444;BME280;1736;52.068;6.968;2023-07-29T11:07:18;100697.72;;;25.21;69.47
3444;BME280;1736;52.068;6.968;2023-07-29T11:09:53;100700.28;;;25.16;67.75
3444;BME280;1736;52.068;6.968;2023-07-29T11:12:34;100689.66;;;24.84;68.87
3444;BME280;1736;52.068;6.968;2023-07-29T11:15:03;100692.44;;;24.77;69.09
3444;BME280;1736;52.068;6.968;2023-07-29T11:17:32;100692.81;;;24.50;69.70
3444;BME280;1736;52.068;6.968;2023-07-29T11:20:02;100686.47;;;24.62;70.80
3444;BME280;1736;52.068;6.968;2023-07-29T11:22:29;100674.56;;;24.26;68.05
3444;BME280;1736;52.068;6.968;2023-07-29T11:24:56;100673.03;;;23.98;70.63
3444;BME280;1736;52.068;6.968;2023-07-29T11:27:22;100686.22;;;24.26;69.88
3444;BME280;1736;52.068;6.968;2023-07-29T11:29:49;100690.56;;;23.96;69.92
3444;BME280;1736;52.068;6.968;2023-07-29T11:32:16;100689.13;;;24.38;69.73
3444;BME280;1736;52.068;6.968;2023-07-29T11:34:42;100684.84;;;24.55;69.87
3444;BME280;1736;52.068;6.968;2023-07-29T11:37:11;100677.06;;;24.58;69.04
3444;BME280;1736;52.068;6.968;2023-07-29T11:39:39;100682.91;;;24.24;69.43
3444;BME280;1736;52.068;6.968;2023-07-29T11:42:06;100674.63;;;24.19;69.59
3444;BME280;1736;52.068;6.968;2023-07-29T11:44:32;100673.69;;;24.32;69.64
3444;BME280;1736;52.068;6.968;2023-07-29T11:46:59;100665.03;;;24.17;69.37
3444;BME280;1736;52.068;6.968;2023-07-29T11:49:26;100660.09;;;24.00;70.43
3444;BME280;1736;52.068;6.968;2023-07-29T11:51:53;100663.06;;;24.30;69.95
3444;BME280;1736;52.068;6.968;2023-07-29T11:54:21;100657.19;;;24.02;69.57
3444;BME280;1736;52.068;6.968;2023-07-29T11:56:47;100659.28;;;23.87;71.33
3444;BME280;1736;52.068;6.968;2023-07-29T11:59:14;100658.59;;;24.11;70.36
3444;BME280;1736;52.068;6.968;2023-07-29T12:01:41;100665.81;;;24.23;70.99
3444;BME280;1736;52.068;6.968;2023-07-29T12:04:08;100662.06;;;24.25;70.39
3444;BME280;1736;52.068;6.968;2023-07-29T12:06:35;100658.88;;;23.96;70.41
3444;BME280;1736;52.068;6.968;2023-07-29T12:09:04;100655.69;;;24.06;70.49
3444;BME280;1736;52.068;6.968;2023-07-29T12:11:32;100655.81;;;24.24;70.10
3444;BME280;1736;52.068;6.968;2023-07-29T12:13:59;100656.31;;;24.77;69.46
3444;BME280;1736;52.068;6.968;2023-07-29T12:16:26;100642.94;;;24.82;67.34
3444;BME280;1736;52.068;6.968;2023-07-29T12:19:00;100653.44;;;24.96;68.71
3444;BME280;1736;52.068;6.968;2023-07-29T12:21:26;100639.47;;;24.68;69.94
3444;BME280;1736;52.068;6.968;2023-07-29T12:23:53;100658.47;;;25.17;68.96
3444;BME280;1736;52.068;6.968;2023-07-29T12:26:19;100659.22;;;25.31;68.32
3444;BME280;1736;52.068;6.968;2023-07-29T12:28:47;100661.34;;;25.22;67.45
3444;BME280;1736;52.068;6.968;2023-07-29T12:31:14;100666.91;;;25.09;67.99
3444;BME280;1736;52.068;6.968;2023-07-29T12:33:40;100660.59;;;24.91;67.84
3444;BME280;1736;52.068;6.968;2023-07-29T12:36:08;100663.25;;;24.97;68.15
3444;BME280;1736;52.068;6.968;2023-07-29T12:38:36;100656.59;;;24.93;68.04
3444;BME280;1736;52.068;6.968;2023-07-29T12:41:02;100661.69;;;25.08;67.86
3444;BME280;1736;52.068;6.968;2023-07-29T12:43:29;100669.00;;;25.07;69.27
3444;BME280;1736;52.068;6.968;2023-07-29T12:45:57;100666.41;;;24.94;69.20
3444;BME280;1736;52.068;6.968;2023-07-29T12:48:24;100669.25;;;25.30;69.26
3444;BME280;1736;52.068;6.968;2023-07-29T12:50:51;100660.50;;;25.28;70.14
3444;BME280;1736;52.068;6.968;2023-07-29T12:53:18;100662.38;;;25.28;68.08
3444;BME280;1736;52.068;6.968;2023-07-29T12:55:44;100669.06;;;25.01;69.10
3444;BME280;1736;52.068;6.968;2023-07-29T12:58:11;100656.47;;;25.06;68.43
3444;BME280;1736;52.068;6.968;2023-07-29T13:00:37;100658.41;;;24.99;68.81
3444;BME280;1736;52.068;6.968;2023-07-29T13:03:05;100654.66;;;24.76;69.53
3444;BME280;1736;52.068;6.968;2023-07-29T13:05:32;100652.69;;;24.52;71.00
3444;BME280;1736;52.068;6.968;2023-07-29T13:07:58;100650.94;;;23.95;77.56